Time;durP1;ratioP1;P1;durP2;ratioP2;P2;SDS_P1;SDS_P2;PMS_P1;PMS_P2;Temp;Humidity;BMP_temperature;BMP_pressure;BME280_temperature;BME280_humidity;BME280_pressure;Samples;Min_cycle;Max_cycle;Signal;HPM_P1;HPM_P2
2023/05/01 00:01:47;;;;;;;6.38;4.40;;;;;;;;;;5010873;28;20135;-68
2023/05/01 00:04:14;;;;;;;5.15;4.00;;;;;;;;;;5010830;28;20519;-68
2023/05/01 00:06:41;;;;;;;6.07;4.78;;;;;;;;;;5010629;28;20128;-68
2023/05/01 00:09:08;;;;;;;6.03;4.30;;;;;;;;;;5010346;28;20050;-68
2023/05/01 00:11:37;;;;;;;5.40;4.10;;;;;;;;;;5010691;28;20056;-68
2023/05/01 00:14:04;;;;;;;5.88;3.90;;;;;;;;;;5010400;28;20054;-68
2023/05/01 00:16:30;;;;;;;5.47;4.13;;;;;;;;;;5010501;28;20115;-68
2023/05/01 00:18:57;;;;;;;7.00;4.40;;;;;;;;;;5010224;28;20053;-68
2023/05/01 00:21:24;;;;;;;7.05;4.10;;;;;;;;;;5010301;28;20390;-69
2023/05/01 00:23:51;;;;;;;5.82;4.88;;;;;;;;;;5010168;28;20124;-68
2023/05/01 00:26:17;;;;;;;7.57;5.00;;;;;;;;;;5010381;28;20049;-68
2023/05/01 00:28:45;;;;;;;7.25;4.47;;;;;;;;;;5010064;28;20115;-68
2023/05/01 00:31:12;;;;;;;5.78;4.78;;;;;;;;;;5010437;28;20385;-68
2023/05/01 00:33:39;;;;;;;5.35;3.83;;;;;;;;;;5009900;28;20135;-68
2023/05/01 00:36:06;;;;;;;6.25;4.43;;;;;;;;;;5010159;28;20050;-68
2023/05/01 00:38:33;;;;;;;5.63;4.30;;;;;;;;;;5010068;28;20108;-68
2023/05/01 00:41:00;;;;;;;5.43;4.18;;;;;;;;;;5009679;28;20050;-68
2023/05/01 00:43:26;;;;;;;6.15;4.20;;;;;;;;;;5010025;28;20543;-68
2023/05/01 00:45:55;;;;;;;6.82;4.85;;;;;;;;;;5009824;28;20499;-68
2023/05/01 00:48:22;;;;;;;6.80;4.90;;;;;;;;;;5010382;28;20070;-68
2023/05/01 00:50:49;;;;;;;6.38;4.72;;;;;;;;;;5010372;28;20483;-68
2023/05/01 00:53:17;;;;;;;5.60;4.22;;;;;;;;;;5009618;28;20054;-68
2023/05/01 00:55:45;;;;;;;5.90;4.10;;;;;;;;;;5010124;28;20061;-68
2023/05/01 00:58:13;;;;;;;5.65;4.80;;;;;;;;;;5009819;28;20050;-68
2023/05/01 01:00:40;;;;;;;5.50;4.57;;;;;;;;;;5009705;28;20054;-68
2023/05/01 01:03:08;;;;;;;6.75;4.70;;;;;;;;;;5008898;28;20232;-68
2023/05/01 01:05:41;;;;;;;5.53;4.10;;;;;;;;;;5009981;28;20050;-68
2023/05/01 01:08:19;;;;;;;6.50;4.65;;;;;;;;;;5009804;28;20065;-68
2023/05/01 01:10:53;;;;;;;5.10;4.32;;;;;;;;;;5009897;28;20123;-68
2023/05/01 01:13:27;;;;;;;5.38;4.32;;;;;;;;;;5010259;28;20050;-68
2023/05/01 01:16:03;;;;;;;6.07;4.15;;;;;;;;;;5010073;28;20486;-68
2023/05/01 01:18:36;;;;;;;6.13;4.53;;;;;;;;;;5009770;28;20046;-67
2023/05/01 01:21:12;;;;;;;6.28;5.30;;;;;;;;;;5009716;28;20057;-68
2023/05/01 01:24:18;;;;;;;6.32;4.47;;;;;;;;;;5009620;28;20057;-68
2023/05/01 01:27:19;;;;;;;5.50;4.18;;;;;;;;;;4945039;28;20116;-68
2023/05/01 01:29:56;;;;;;;;;;;;;;;;;;4979439;28;20077;-68
2023/05/01 01:32:53;;;;;;;6.38;4.05;;;;;;;;;;5009544;28;19981;-68
2023/05/01 01:35:26;;;;;;;5.70;4.00;;;;;;;;;;5009701;28;20116;-68
2023/05/01 01:38:00;;;;;;;6.05;4.32;;;;;;;;;;5009380;28;20136;-68
2023/05/01 01:40:34;;;;;;;6.97;4.57;;;;;;;;;;5009648;28;20325;-68
2023/05/01 01:43:05;;;;;;;6.40;4.55;;;;;;;;;;5009328;28;20062;-68
2023/05/01 01:45:38;;;;;;;5.93;4.70;;;;;;;;;;5009305;28;20085;-68
2023/05/01 01:48:07;;;;;;;5.85;4.40;;;;;;;;;;5009485;28;20061;-68
2023/05/01 01:50:37;;;;;;;6.80;4.78;;;;;;;;;;5009242;28;20052;-68
2023/05/01 01:53:06;;;;;;;7.55;5.28;;;;;;;;;;5009446;28;20054;-68
2023/05/01 01:55:36;;;;;;;6.15;4.90;;;;;;;;;;5009631;28;20058;-68
2023/05/01 01:58:05;;;;;;;6.70;5.00;;;;;;;;;;5009317;28;20058;-68
2023/05/01 02:00:33;;;;;;;5.80;4.57;;;;;;;;;;5009171;28;20046;-68
2023/05/01 02:03:01;;;;;;;6.57;4.63;;;;;;;;;;5009787;28;20483;-69
2023/05/01 02:05:28;;;;;;;7.45;4.97;;;;;;;;;;5009289;28;20466;-68
2023/05/01 02:07:59;;;;;;;6.50;4.70;;;;;;;;;;5009131;28;20045;-69
2023/05/01 02:10:27;;;;;;;8.18;5.30;;;;;;;;;;5009140;28;20057;-68
2023/05/01 02:12:56;;;;;;;6.72;5.30;;;;;;;;;;5009272;28;20052;-68
2023/05/01 02:15:25;;;;;;;6.45;5.05;;;;;;;;;;5012034;28;20061;-68
2023/05/01 02:17:52;;;;;;;7.55;4.97;;;;;;;;;;5012692;28;20056;-68
2023/05/01 02:20:21;;;;;;;7.90;5.25;;;;;;;;;;5012489;28;20049;-67
2023/05/01 02:22:48;;;;;;;6.32;4.55;;;;;;;;;;5012886;28;20052;-68
2023/05/01 02:25:17;;;;;;;7.55;5.60;;;;;;;;;;5012403;28;20087;-68
2023/05/01 02:27:48;;;;;;;6.25;5.03;;;;;;;;;;5012326;28;20050;-67
2023/05/01 02:30:15;;;;;;;6.97;5.78;;;;;;;;;;5012182;28;20140;-67
2023/05/01 02:32:42;;;;;;;6.03;4.72;;;;;;;;;;5012241;28;20049;-67
2023/05/01 02:35:09;;;;;;;6.35;4.80;;;;;;;;;;5012193;28;20466;-67
2023/05/01 02:37:36;;;;;;;7.00;5.10;;;;;;;;;;5012470;28;20096;-66
2023/05/01 02:40:04;;;;;;;5.97;5.00;;;;;;;;;;5012225;28;20058;-66
2023/05/01 02:42:34;;;;;;;7.88;4.80;;;;;;;;;;5012343;28;20046;-66
2023/05/01 02:45:05;;;;;;;6.47;4.93;;;;;;;;;;5012468;28;20551;-67
2023/05/01 02:47:35;;;;;;;7.18;5.15;;;;;;;;;;5012372;28;20100;-66
2023/05/01 02:50:03;;;;;;;6.60;5.30;;;;;;;;;;5012418;28;20082;-67
2023/05/01 02:52:30;;;;;;;6.63;5.43;;;;;;;;;;5011987;28;20491;-67
2023/05/01 02:54:57;;;;;;;6.45;5.05;;;;;;;;;;5011881;28;20120;-67
2023/05/01 02:57:24;;;;;;;6.95;5.40;;;;;;;;;;5011763;28;20459;-66
2023/05/01 02:59:52;;;;;;;6.95;4.80;;;;;;;;;;5011640;28;20112;-67
2023/05/01 03:02:19;;;;;;;7.00;5.35;;;;;;;;;;5011925;28;20046;-67
2023/05/01 03:04:46;;;;;;;6.30;5.40;;;;;;;;;;5011641;28;20077;-66
2023/05/01 03:07:13;;;;;;;7.03;4.80;;;;;;;;;;5011603;28;20144;-67
2023/05/01 03:09:40;;;;;;;6.70;5.57;;;;;;;;;;5011643;28;20068;-66
2023/05/01 03:12:07;;;;;;;6.68;5.10;;;;;;;;;;5011768;28;20054;-66
2023/05/01 03:14:33;;;;;;;8.15;5.35;;;;;;;;;;5011656;28;20042;-66
2023/05/01 03:17:02;;;;;;;6.50;5.25;;;;;;;;;;5011622;28;20050;-66
2023/05/01 03:19:29;;;;;;;7.18;5.22;;;;;;;;;;5011404;28;20073;-66
2023/05/01 03:21:56;;;;;;;7.60;5.50;;;;;;;;;;5011496;28;20049;-66
2023/05/01 03:24:24;;;;;;;6.82;5.40;;;;;;;;;;5009757;28;20050;-66
2023/05/01 03:26:50;;;;;;;6.72;4.75;;;;;;;;;;5008488;28;20547;-66
2023/05/01 03:29:17;;;;;;;7.03;5.25;;;;;;;;;;5010285;28;20116;-66
2023/05/01 03:31:44;;;;;;;7.40;5.80;;;;;;;;;;5010653;28;20062;-66
2023/05/01 03:34:12;;;;;;;6.85;5.60;;;;;;;;;;5011186;28;20502;-66
2023/05/01 03:36:39;;;;;;;7.65;5.55;;;;;;;;;;5011167;28;20054;-66
2023/05/01 03:39:07;;;;;;;5.97;5.03;;;;;;;;;;5011239;28;20045;-66
2023/05/01 03:41:34;;;;;;;7.35;5.78;;;;;;;;;;5010960;28;20093;-66
2023/05/01 03:44:01;;;;;;;8.30;5.25;;;;;;;;;;5010926;28;20050;-66
2023/05/01 03:46:27;;;;;;;6.57;5.40;;;;;;;;;;5010945;28;20050;-66
2023/05/01 03:48:54;;;;;;;8.88;4.95;;;;;;;;;;5010959;28;20065;-66
2023/05/01 03:51:22;;;;;;;6.30;5.43;;;;;;;;;;5010802;28;20518;-66
2023/05/01 03:53:49;;;;;;;7.40;5.32;;;;;;;;;;5010644;28;20454;-66
2023/05/01 03:56:16;;;;;;;7.03;5.70;;;;;;;;;;5010895;28;20054;-66
2023/05/01 03:58:43;;;;;;;7.50;5.35;;;;;;;;;;5010853;28;20157;-66
2023/05/01 04:01:10;;;;;;;6.82;5.38;;;;;;;;;;5039299;22;21205;-81
2023/05/01 04:03:36;;;;;;;7.47;5.70;;;;;;;;;;5082039;28;20048;-79
2023/05/01 04:06:03;;;;;;;7.70;5.68;;;;;;;;;;5085662;28;20476;-79
2023/05/01 04:08:31;;;;;;;7.30;5.15;;;;;;;;;;5086459;28;20064;-79
2023/05/01 04:10:58;;;;;;;6.35;5.05;;;;;;;;;;5086022;28;20406;-79
2023/05/01 04:13:25;;;;;;;7.47;5.57;;;;;;;;;;5086533;28;20108;-79
2023/05/01 04:15:54;;;;;;;6.65;4.97;;;;;;;;;;5086408;28;20051;-79
2023/05/01 04:18:20;;;;;;;8.20;5.65;;;;;;;;;;5085594;28;20108;-79
2023/05/01 04:20:47;;;;;;;7.72;6.05;;;;;;;;;;5086497;28;20079;-80
2023/05/01 04:23:13;;;;;;;7.32;5.13;;;;;;;;;;5086291;28;20052;-80
2023/05/01 04:25:41;;;;;;;7.63;5.68;;;;;;;;;;5085301;28;20535;-80
2023/05/01 04:28:10;;;;;;;7.38;5.53;;;;;;;;;;5086301;28;20044;-80
2023/05/01 04:30:37;;;;;;;8.40;5.90;;;;;;;;;;5084939;28;20079;-80
2023/05/01 04:33:10;;;;;;;8.38;6.32;;;;;;;;;;5085381;28;20072;-80
2023/05/01 04:35:37;;;;;;;7.10;5.90;;;;;;;;;;5085732;28;20093;-80
2023/05/01 04:38:04;;;;;;;7.45;5.70;;;;;;;;;;5086372;28;20054;-80
2023/05/01 04:40:30;;;;;;;8.25;6.00;;;;;;;;;;5088545;28;20075;-80
2023/05/01 04:42:59;;;;;;;7.82;5.47;;;;;;;;;;5087414;28;20045;-80
2023/05/01 04:45:26;;;;;;;7.35;5.88;;;;;;;;;;5087433;28;20112;-80
2023/05/01 04:47:53;;;;;;;7.88;5.80;;;;;;;;;;5086066;28;20076;-80
2023/05/01 04:50:19;;;;;;;7.20;5.68;;;;;;;;;;5085121;28;20044;-80
2023/05/01 04:52:46;;;;;;;7.95;6.15;;;;;;;;;;5085357;28;20040;-80
2023/05/01 04:55:13;;;;;;;7.80;6.03;;;;;;;;;;5084843;28;20125;-80
2023/05/01 04:57:40;;;;;;;8.75;5.85;;;;;;;;;;5084736;28;20124;-79
2023/05/01 05:00:09;;;;;;;9.55;5.65;;;;;;;;;;5084438;28;20120;-80
2023/05/01 05:02:35;;;;;;;7.75;6.07;;;;;;;;;;5073766;28;20052;-80
2023/05/01 05:05:02;;;;;;;8.07;6.25;;;;;;;;;;5063620;28;20110;-80
2023/05/01 05:07:29;;;;;;;8.63;6.25;;;;;;;;;;5063312;28;20049;-79
2023/05/01 05:09:55;;;;;;;7.28;5.90;;;;;;;;;;5073114;28;20063;-80
2023/05/01 05:12:22;;;;;;;7.47;5.50;;;;;;;;;;5074929;28;20072;-80
2023/05/01 05:14:48;;;;;;;7.80;5.75;;;;;;;;;;5059260;28;20068;-80
2023/05/01 05:17:17;;;;;;;7.22;5.95;;;;;;;;;;5061546;28;20045;-80
2023/05/01 05:19:43;;;;;;;6.68;5.40;;;;;;;;;;5060663;28;20574;-80
2023/05/01 05:22:11;;;;;;;8.55;5.70;;;;;;;;;;5060572;28;20088;-80
2023/05/01 05:24:38;;;;;;;9.23;5.88;;;;;;;;;;5060028;28;20122;-80
2023/05/01 05:27:05;;;;;;;7.93;5.38;;;;;;;;;;5061447;28;20056;-79
2023/05/01 05:29:33;;;;;;;7.03;5.40;;;;;;;;;;5062283;28;20045;-80
2023/05/01 05:32:00;;;;;;;6.97;5.60;;;;;;;;;;5059849;28;20071;-80
2023/05/01 05:34:28;;;;;;;8.20;6.30;;;;;;;;;;5058603;28;20131;-80
2023/05/01 05:36:55;;;;;;;7.68;5.38;;;;;;;;;;5060950;28;20053;-79
2023/05/01 05:39:22;;;;;;;9.00;5.82;;;;;;;;;;5063589;28;20041;-80
2023/05/01 05:41:49;;;;;;;7.68;6.20;;;;;;;;;;5061343;28;20041;-80
2023/05/01 05:44:15;;;;;;;7.28;5.70;;;;;;;;;;5061173;28;20419;-80
2023/05/01 05:46:42;;;;;;;9.45;6.30;;;;;;;;;;5061676;28;20053;-80
2023/05/01 05:49:09;;;;;;;6.60;5.38;;;;;;;;;;5064604;28;20117;-80
2023/05/01 05:51:37;;;;;;;6.85;5.43;;;;;;;;;;5068539;28;20462;-80
2023/05/01 05:54:04;;;;;;;7.15;5.90;;;;;;;;;;5059269;28;20112;-80
2023/05/01 05:56:31;;;;;;;7.28;5.90;;;;;;;;;;5058922;28;20067;-82
2023/05/01 05:58:57;;;;;;;7.18;5.55;;;;;;;;;;5069914;28;20037;-80
2023/05/01 06:01:24;;;;;;;6.97;5.47;;;;;;;;;;5061697;28;20055;-79
2023/05/01 06:03:51;;;;;;;8.25;6.00;;;;;;;;;;5059613;28;20511;-81
2023/05/01 06:06:17;;;;;;;7.25;5.63;;;;;;;;;;5060883;28;20048;-80
2023/05/01 06:08:45;;;;;;;9.40;5.38;;;;;;;;;;5057785;28;20104;-80
2023/05/01 06:11:12;;;;;;;7.60;5.40;;;;;;;;;;5066091;28;20060;-79
2023/05/01 06:13:39;;;;;;;7.22;5.40;;;;;;;;;;5071596;28;20085;-80
2023/05/01 06:16:07;;;;;;;7.00;5.65;;;;;;;;;;5057515;28;20076;-79
2023/05/01 06:18:33;;;;;;;7.90;6.30;;;;;;;;;;5056345;28;20059;-79
2023/05/01 06:21:00;;;;;;;8.85;5.50;;;;;;;;;;5058334;28;20080;-80
2023/05/01 06:23:27;;;;;;;7.13;5.28;;;;;;;;;;5056745;28;20105;-80
2023/05/01 06:25:55;;;;;;;6.68;5.35;;;;;;;;;;5058350;28;20049;-81
2023/05/01 06:28:22;;;;;;;7.47;5.65;;;;;;;;;;5061186;28;20784;-81
2023/05/01 06:30:49;;;;;;;6.88;5.50;;;;;;;;;;5076346;28;20041;-79
2023/05/01 06:33:15;;;;;;;7.47;5.22;;;;;;;;;;5073887;28;20045;-79
2023/05/01 06:35:42;;;;;;;8.23;5.40;;;;;;;;;;5061660;28;20067;-79
2023/05/01 06:38:08;;;;;;;7.82;5.45;;;;;;;;;;5056493;28;20124;-80
2023/05/01 06:40:35;;;;;;;8.02;5.78;;;;;;;;;;5056162;28;20476;-79
2023/05/01 06:43:04;;;;;;;6.47;5.10;;;;;;;;;;5056682;28;20131;-79
2023/05/01 06:45:31;;;;;;;9.10;6.40;;;;;;;;;;5060406;28;20076;-79
2023/05/01 06:47:57;;;;;;;5.80;5.10;;;;;;;;;;5059895;28;20107;-79
2023/05/01 06:50:24;;;;;;;7.68;5.68;;;;;;;;;;5057273;28;20045;-79
2023/05/01 06:52:50;;;;;;;7.20;5.18;;;;;;;;;;5057587;28;20479;-80
2023/05/01 06:55:17;;;;;;;6.90;5.35;;;;;;;;;;5067038;28;20083;-79
2023/05/01 06:57:44;;;;;;;8.18;5.53;;;;;;;;;;5068535;28;20060;-80
2023/05/01 07:00:13;;;;;;;7.20;5.20;;;;;;;;;;5062264;28;20053;-80
2023/05/01 07:02:41;;;;;;;7.35;5.80;;;;;;;;;;5056849;28;20511;-80
2023/05/01 07:05:07;;;;;;;6.97;5.40;;;;;;;;;;5057365;28;20055;-81
2023/05/01 07:07:35;;;;;;;8.68;5.70;;;;;;;;;;5059596;28;20045;-79
2023/05/01 07:10:02;;;;;;;8.65;6.35;;;;;;;;;;5058239;28;20519;-79
2023/05/01 07:12:29;;;;;;;7.30;5.82;;;;;;;;;;5059293;28;20041;-79
2023/05/01 07:14:59;;;;;;;6.88;5.68;;;;;;;;;;5058223;28;20041;-81
2023/05/01 07:17:27;;;;;;;7.65;5.80;;;;;;;;;;5056621;28;20075;-79
2023/05/01 07:19:53;;;;;;;7.82;5.60;;;;;;;;;;5056980;28;20040;-79
2023/05/01 07:22:20;;;;;;;7.00;5.63;;;;;;;;;;5056693;28;20087;-79
2023/05/01 07:24:47;;;;;;;8.13;5.93;;;;;;;;;;5057085;28;20088;-79
2023/05/01 07:27:13;;;;;;;7.63;5.95;;;;;;;;;;5055510;28;20080;-79
2023/05/01 07:29:40;;;;;;;7.53;6.18;;;;;;;;;;5054585;28;20097;-85
2023/05/01 07:32:07;;;;;;;7.60;6.30;;;;;;;;;;5056064;28;20085;-77
2023/05/01 07:34:36;;;;;;;6.75;5.32;;;;;;;;;;5054893;28;20048;-77
2023/05/01 07:37:03;;;;;;;7.93;6.07;;;;;;;;;;5056186;28;20045;-79
2023/05/01 07:39:30;;;;;;;7.18;5.53;;;;;;;;;;5067416;28;20052;-81
2023/05/01 07:41:57;;;;;;;7.13;5.55;;;;;;;;;;5066052;28;20083;-79
2023/05/01 07:44:27;;;;;;;7.45;5.32;;;;;;;;;;5068390;28;20080;-80
2023/05/01 07:46:53;;;;;;;7.47;5.57;;;;;;;;;;5066301;28;20055;-81
2023/05/01 07:49:20;;;;;;;7.30;5.70;;;;;;;;;;5068017;28;20509;-81
2023/05/01 07:52:07;;;;;;;7.60;5.60;;;;;;;;;;5069072;28;20049;-80
2023/05/01 07:54:34;;;;;;;7.80;5.22;;;;;;;;;;5072017;28;20090;-82
2023/05/01 07:57:03;;;;;;;7.63;5.57;;;;;;;;;;5072356;28;20518;-82
2023/05/01 07:59:29;;;;;;;7.65;5.60;;;;;;;;;;5060013;28;20048;-82
2023/05/01 08:01:56;;;;;;;6.85;5.28;;;;;;;;;;5061796;28;20059;-82
2023/05/01 08:04:23;;;;;;;8.43;6.13;;;;;;;;;;5066735;28;20049;-83
2023/05/01 08:06:54;;;;;;;7.85;5.80;;;;;;;;;;5066423;28;20072;-84
2023/05/01 08:09:23;;;;;;;8.38;6.20;;;;;;;;;;5062204;28;20124;-79
2023/05/01 08:11:50;;;;;;;9.98;6.75;;;;;;;;;;5058828;28;20064;-81
2023/05/01 08:14:18;;;;;;;6.30;5.00;;;;;;;;;;5063535;28;20056;-81
2023/05/01 08:16:45;;;;;;;7.80;5.72;;;;;;;;;;5078895;28;20072;-79
2023/05/01 08:19:12;;;;;;;8.00;5.68;;;;;;;;;;5078817;28;20124;-79
2023/05/01 08:21:38;;;;;;;8.63;5.88;;;;;;;;;;5080289;28;20614;-80
2023/05/01 08:24:10;;;;;;;7.70;5.47;;;;;;;;;;5080925;28;20041;-80
2023/05/01 08:26:37;;;;;;;8.18;5.60;;;;;;;;;;5080979;28;20048;-80
2023/05/01 08:29:03;;;;;;;7.95;5.47;;;;;;;;;;5083638;28;20063;-80
2023/05/01 08:31:30;;;;;;;6.90;5.63;;;;;;;;;;5083502;28;20507;-81
2023/05/01 08:33:57;;;;;;;7.60;5.80;;;;;;;;;;5076308;28;20044;-80
2023/05/01 08:36:31;;;;;;;7.18;5.63;;;;;;;;;;5082449;28;20495;-81
2023/05/01 08:38:58;;;;;;;7.18;5.85;;;;;;;;;;5082514;28;20135;-82
2023/05/01 08:41:30;;;;;;;6.78;5.18;;;;;;;;;;5080240;28;20048;-79
2023/05/01 08:43:57;;;;;;;8.35;6.20;;;;;;;;;;5081308;28;20075;-80
2023/05/01 08:46:29;;;;;;;8.02;5.90;;;;;;;;;;5078699;28;20044;-81
2023/05/01 08:48:58;;;;;;;7.72;6.30;;;;;;;;;;5078555;28;20071;-80
2023/05/01 08:51:26;;;;;;;7.88;5.80;;;;;;;;;;5078423;28;20058;-80
2023/05/01 08:53:55;;;;;;;7.97;6.20;;;;;;;;;;5079641;28;20052;-80
2023/05/01 08:56:23;;;;;;;8.38;6.63;;;;;;;;;;5084012;28;20068;-81
2023/05/01 08:58:53;;;;;;;8.40;6.18;;;;;;;;;;5080248;28;20646;-80
2023/05/01 09:01:22;;;;;;;8.23;6.30;;;;;;;;;;5086419;28;20079;-80
2023/05/01 09:03:51;;;;;;;7.47;5.80;;;;;;;;;;5086056;28;20040;-81
2023/05/01 09:06:18;;;;;;;7.90;6.50;;;;;;;;;;5079377;28;20048;-81
2023/05/01 09:08:44;;;;;;;8.05;6.15;;;;;;;;;;5078836;28;20041;-79
2023/05/01 09:11:11;;;;;;;8.15;5.97;;;;;;;;;;5080734;28;20053;-79
2023/05/01 09:13:39;;;;;;;8.48;6.07;;;;;;;;;;5080035;28;20045;-79
2023/05/01 09:16:08;;;;;;;9.77;5.78;;;;;;;;;;5078985;28;20044;-79
2023/05/01 09:18:35;;;;;;;8.73;6.10;;;;;;;;;;5080273;28;20068;-80
2023/05/01 09:21:02;;;;;;;8.07;6.07;;;;;;;;;;5078523;28;20130;-80
2023/05/01 09:23:29;;;;;;;7.90;6.63;;;;;;;;;;5083196;28;20040;-80
2023/05/01 09:25:57;;;;;;;10.18;6.68;;;;;;;;;;5085212;28;20103;-80
2023/05/01 09:28:40;;;;;;;9.07;6.15;;;;;;;;;;5084795;28;20057;-80
2023/05/01 09:31:20;;;;;;;8.05;6.10;;;;;;;;;;5091158;28;20045;-80
2023/05/01 09:33:52;;;;;;;8.82;6.78;;;;;;;;;;5080863;28;20036;-81
2023/05/01 09:36:19;;;;;;;8.98;7.10;;;;;;;;;;5071867;28;20049;-80
2023/05/01 09:38:46;;;;;;;8.65;6.32;;;;;;;;;;5065288;28;20080;-80
2023/05/01 09:41:13;;;;;;;8.65;6.13;;;;;;;;;;5063768;28;20037;-80
2023/05/01 09:43:40;;;;;;;10.48;7.70;;;;;;;;;;5069126;28;20080;-82
2023/05/01 09:46:08;;;;;;;9.23;7.60;;;;;;;;;;5073007;28;20053;-81
2023/05/01 09:48:37;;;;;;;10.05;7.45;;;;;;;;;;5072013;28;20684;-80
2023/05/01 09:51:24;;;;;;;8.63;6.72;;;;;;;;;;5068348;28;20317;-80
2023/05/01 09:53:52;;;;;;;9.00;7.28;;;;;;;;;;5069748;28;20040;-80
2023/05/01 09:56:20;;;;;;;9.95;7.43;;;;;;;;;;5076676;28;20055;-81
2023/05/01 09:58:47;;;;;;;8.95;7.05;;;;;;;;;;5075622;28;20045;-81
2023/05/01 10:01:13;;;;;;;10.90;7.97;;;;;;;;;;5068481;28;20071;-80
2023/05/01 10:03:43;;;;;;;9.68;7.28;;;;;;;;;;5067835;28;20079;-81
2023/05/01 10:06:10;;;;;;;9.45;7.72;;;;;;;;;;5068161;28;20132;-80
2023/05/01 10:08:47;;;;;;;9.35;7.15;;;;;;;;;;5066420;28;20048;-81
2023/05/01 10:11:14;;;;;;;9.15;7.05;;;;;;;;;;5065473;28;20045;-81
2023/05/01 10:13:41;;;;;;;8.73;7.22;;;;;;;;;;5066418;28;20072;-80
2023/05/01 10:16:27;;;;;;;10.63;7.55;;;;;;;;;;5065915;28;20102;-80
2023/05/01 10:18:57;;;;;;;8.65;7.10;;;;;;;;;;5061874;28;20049;-80
2023/05/01 10:21:23;;;;;;;9.23;7.47;;;;;;;;;;5057093;28;20139;-80
2023/05/01 10:23:51;;;;;;;8.13;6.60;;;;;;;;;;5056398;28;20348;-80
2023/05/01 10:26:19;;;;;;;9.70;7.40;;;;;;;;;;5057954;28;20045;-80
2023/05/01 10:28:48;;;;;;;9.40;7.18;;;;;;;;;;5057316;28;20124;-81
2023/05/01 10:31:15;;;;;;;9.50;7.38;;;;;;;;;;5056795;28;20053;-81
2023/05/01 10:33:43;;;;;;;8.68;7.07;;;;;;;;;;5057287;28;20040;-81
2023/05/01 10:36:18;;;;;;;10.65;7.68;;;;;;;;;;5056619;28;20049;-81
2023/05/01 10:38:47;;;;;;;9.35;7.43;;;;;;;;;;5057017;28;20155;-80
2023/05/01 10:41:14;;;;;;;9.30;7.57;;;;;;;;;;5056031;28;20049;-80
2023/05/01 10:43:41;;;;;;;11.45;8.60;;;;;;;;;;5056655;28;20152;-80
2023/05/01 10:46:26;;;;;;;9.50;7.82;;;;;;;;;;5055770;28;20136;-80
2023/05/01 10:48:57;;;;;;;10.80;8.40;;;;;;;;;;5055893;28;20166;-79
2023/05/01 10:51:27;;;;;;;10.88;8.80;;;;;;;;;;5056139;28;20045;-80
2023/05/01 10:54:23;;;;;;;11.70;8.73;;;;;;;;;;5056483;28;20102;-80
2023/05/01 10:56:50;;;;;;;11.52;8.98;;;;;;;;;;5059636;28;20057;-80
2023/05/01 10:59:17;;;;;;;11.25;8.60;;;;;;;;;;5069551;28;20077;-80
2023/05/01 11:01:46;;;;;;;12.18;10.02;;;;;;;;;;5065552;28;20108;-80
2023/05/01 11:04:54;;;;;;;13.00;9.32;;;;;;;;;;5081275;28;20055;-80
2023/05/01 11:07:24;;;;;;;10.52;8.57;;;;;;;;;;5083363;28;20074;-80
2023/05/01 11:09:57;;;;;;;13.10;10.25;;;;;;;;;;5080353;28;20048;-80
2023/05/01 11:12:52;;;;;;;12.85;10.00;;;;;;;;;;5084217;28;20547;-79
2023/05/01 11:15:30;;;;;;;13.82;11.15;;;;;;;;;;5084168;28;20052;-80
2023/05/01 11:17:58;;;;;;;13.88;10.20;;;;;;;;;;5080903;28;20495;-80
2023/05/01 11:20:50;;;;;;;14.52;10.77;;;;;;;;;;5076848;28;20048;-80
2023/05/01 11:23:19;;;;;;;13.80;11.10;;;;;;;;;;5078575;28;20048;-78
2023/05/01 11:25:48;;;;;;;12.18;10.02;;;;;;;;;;5078665;28;20131;-79
2023/05/01 11:28:19;;;;;;;14.88;12.57;;;;;;;;;;5079582;28;20064;-80
2023/05/01 11:30:46;;;;;;;14.30;11.25;;;;;;;;;;5076756;28;20052;-80
2023/05/01 11:33:15;;;;;;;12.70;11.38;;;;;;;;;;5076365;28;20056;-80
2023/05/01 11:35:42;;;;;;;13.38;11.13;;;;;;;;;;5075676;28;20041;-80
2023/05/01 11:38:18;;;;;;;12.30;10.80;;;;;;;;;;5074944;28;20098;-79
2023/05/01 11:40:54;;;;;;;13.35;10.52;;;;;;;;;;5075078;28;20048;-79
2023/05/01 11:43:22;;;;;;;13.93;10.57;;;;;;;;;;5079341;28;20072;-81
2023/05/01 11:48:38;;;;;;;12.73;10.45;;;;;;;;;;5082253;28;20052;-82
2023/05/01 11:51:12;;;;;;;15.18;10.63;;;;;;;;;;5079325;28;20081;-82
2023/05/01 11:53:39;;;;;;;12.63;10.13;;;;;;;;;;5076403;28;20075;-82
2023/05/01 11:56:20;;;;;;;12.95;10.32;;;;;;;;;;5077895;28;20080;-82
2023/05/01 11:58:47;;;;;;;;;;;;;;;;;;5083474;28;20108;-81
2023/05/01 12:01:14;;;;;;;14.32;11.15;;;;;;;;;;5086032;28;19920;-82
2023/05/01 12:03:42;;;;;;;11.75;9.43;;;;;;;;;;5083129;28;20055;-81
2023/05/01 12:06:13;;;;;;;12.50;10.93;;;;;;;;;;5085681;28;20028;-82
2023/05/01 12:08:45;;;;;;;16.65;11.07;;;;;;;;;;5061420;28;20045;-82
2023/05/01 12:11:12;;;;;;;15.02;11.65;;;;;;;;;;5059392;28;20110;-81
2023/05/01 12:13:41;;;;;;;13.15;10.55;;;;;;;;;;5061190;28;20040;-80
2023/05/01 12:16:09;;;;;;;14.32;10.38;;;;;;;;;;5067951;28;20518;-80
2023/05/01 12:18:36;;;;;;;13.27;11.00;;;;;;;;;;5076615;28;20464;-81
2023/05/01 12:21:03;;;;;;;14.20;10.90;;;;;;;;;;5081576;28;20044;-82
2023/05/01 12:23:32;;;;;;;14.45;11.35;;;;;;;;;;5078619;28;20055;-80
2023/05/01 12:25:59;;;;;;;12.30;10.07;;;;;;;;;;5088052;28;20071;-81
2023/05/01 12:28:26;;;;;;;13.07;10.70;;;;;;;;;;5089774;28;20044;-81
2023/05/01 12:31:01;;;;;;;12.50;10.05;;;;;;;;;;5089486;28;20091;-81
2023/05/01 12:33:29;;;;;;;13.80;11.02;;;;;;;;;;5092993;28;20127;-80
2023/05/01 12:36:08;;;;;;;13.85;11.40;;;;;;;;;;5095826;28;20063;-81
2023/05/01 12:38:35;;;;;;;13.70;10.88;;;;;;;;;;5091069;28;20044;-81
2023/05/01 12:41:05;;;;;;;13.70;11.27;;;;;;;;;;5088764;28;20045;-81
2023/05/01 12:43:34;;;;;;;13.15;11.00;;;;;;;;;;5089777;28;20078;-80
2023/05/01 12:46:03;;;;;;;12.38;10.35;;;;;;;;;;5085741;28;20048;-80
2023/05/01 12:48:31;;;;;;;13.43;11.15;;;;;;;;;;5083576;28;20064;-80
2023/05/01 12:50:58;;;;;;;13.30;11.05;;;;;;;;;;5084139;28;20048;-80
2023/05/01 12:53:26;;;;;;;14.73;11.13;;;;;;;;;;5085655;28;20064;-80
2023/05/01 12:55:54;;;;;;;12.05;9.90;;;;;;;;;;5087732;28;20080;-81
2023/05/01 12:58:21;;;;;;;13.85;10.75;;;;;;;;;;5087833;28;20040;-81
2023/05/01 13:00:50;;;;;;;12.50;10.77;;;;;;;;;;5086559;28;20052;-81
2023/05/01 13:03:23;;;;;;;13.15;11.00;;;;;;;;;;5063204;28;20049;-81
2023/05/01 13:05:51;;;;;;;13.43;10.77;;;;;;;;;;5064602;28;20079;-81
2023/05/01 13:08:27;;;;;;;12.27;9.32;;;;;;;;;;5067088;28;20045;-81
2023/05/01 13:10:54;;;;;;;11.73;10.07;;;;;;;;;;5063295;28;20048;-81
2023/05/01 13:13:27;;;;;;;12.60;10.70;;;;;;;;;;5070879;28;20739;-81
2023/05/01 13:16:03;;;;;;;12.23;10.15;;;;;;;;;;5082292;28;20044;-80
2023/05/01 13:18:32;;;;;;;11.88;9.68;;;;;;;;;;5085497;28;20061;-80
2023/05/01 13:21:07;;;;;;;13.48;10.88;;;;;;;;;;5085169;28;20068;-80
2023/05/01 13:23:34;;;;;;;11.75;9.18;;;;;;;;;;5088993;28;20051;-81
2023/05/01 13:28:48;;;;;;;12.23;10.32;;;;;;;;;;5037688;28;20053;-82
2023/05/01 13:31:18;;;;;;;11.80;9.00;;;;;;;;;;5036276;28;20056;-81
2023/05/01 13:33:57;;;;;;;12.55;9.77;;;;;;;;;;5039047;28;20522;-81
2023/05/01 13:36:27;;;;;;;12.35;9.73;;;;;;;;;;5039234;28;20592;-79
2023/05/01 13:38:58;;;;;;;10.35;9.25;;;;;;;;;;5034843;28;20417;-81
2023/05/01 13:41:28;;;;;;;11.10;9.15;;;;;;;;;;5035191;28;20397;-81
2023/05/01 13:43:56;;;;;;;11.47;9.53;;;;;;;;;;5035228;28;20073;-80
2023/05/01 13:46:26;;;;;;;11.02;9.00;;;;;;;;;;5035792;28;20506;-79
2023/05/01 13:48:55;;;;;;;10.48;9.13;;;;;;;;;;5035153;28;20185;-80
2023/05/01 13:51:23;;;;;;;12.45;9.82;;;;;;;;;;5034746;28;20061;-81
2023/05/01 13:53:52;;;;;;;10.48;8.80;;;;;;;;;;5033399;28;20048;-81
2023/05/01 13:56:20;;;;;;;10.55;9.13;;;;;;;;;;5036584;28;20053;-81
2023/05/01 13:58:50;;;;;;;10.02;8.93;;;;;;;;;;5039484;28;20053;-82
2023/05/01 14:01:19;;;;;;;9.77;8.77;;;;;;;;;;5042847;28;20045;-82
2023/05/01 14:03:54;;;;;;;10.20;8.60;;;;;;;;;;5043647;28;20056;-79
2023/05/01 14:06:34;;;;;;;11.48;9.10;;;;;;;;;;5044219;28;20508;-81
2023/05/01 14:09:02;;;;;;;10.77;8.25;;;;;;;;;;5037328;28;20116;-83
2023/05/01 14:11:33;;;;;;;10.52;8.93;;;;;;;;;;5039835;28;20072;-82
2023/05/01 14:14:09;;;;;;;;;;;;;;;;;;5038411;28;20041;-81
2023/05/01 14:16:42;;;;;;;11.50;9.32;;;;;;;;;;5039349;28;19921;-81
2023/05/01 14:19:10;;;;;;;12.32;9.75;;;;;;;;;;5040463;28;20046;-81
2023/05/01 14:21:43;;;;;;;11.65;8.98;;;;;;;;;;5040464;28;20049;-80
2023/05/01 14:24:11;;;;;;;10.25;8.70;;;;;;;;;;5039430;28;20060;-80
2023/05/01 14:26:42;;;;;;;11.57;8.75;;;;;;;;;;5037990;28;20060;-80
2023/05/01 14:29:23;;;;;;;10.38;8.80;;;;;;;;;;5038555;28;20053;-80
2023/05/01 14:31:54;;;;;;;12.32;9.30;;;;;;;;;;5038842;28;20641;-81
2023/05/01 14:34:30;;;;;;;12.25;9.50;;;;;;;;;;5038595;28;20489;-81
2023/05/01 14:36:58;;;;;;;10.27;8.98;;;;;;;;;;5037423;28;20105;-80
2023/05/01 14:39:34;;;;;;;10.15;8.88;;;;;;;;;;5037368;28;20072;-81
2023/05/01 14:42:05;;;;;;;10.40;9.20;;;;;;;;;;5042287;28;20110;-81
2023/05/01 14:47:13;;;;;;;10.90;9.55;;;;;;;;;;5044755;28;20045;-83
2023/05/01 14:49:50;;;;;;;12.05;9.25;;;;;;;;;;5037464;28;20065;-81
2023/05/01 14:52:32;;;;;;;10.70;8.95;;;;;;;;;;5038028;28;20076;-81
2023/05/01 14:55:06;;;;;;;10.13;8.60;;;;;;;;;;5038763;28;20081;-81
2023/05/01 14:57:34;;;;;;;11.00;9.02;;;;;;;;;;5039139;28;20144;-80
2023/05/01 15:00:06;;;;;;;10.30;8.30;;;;;;;;;;5037925;28;20088;-82